Time;durP1;ratioP1;P1;durP2;ratioP2;P2;SDS_P1;SDS_P2;PMS_P1;PMS_P2;Temp;Humidity;BMP_temperature;BMP_pressure;BME280_temperature;BME280_humidity;BME280_pressure;Samples;Min_cycle;Max_cycle;Signal;HPM_P1;HPM_P2
2022/04/19 00:01:24;;;;;;;11.30;7.20;;;10.20;99.90;;;;;;4936239;29;20119;-71
2022/04/19 00:03:50;;;;;;;11.88;7.40;;;10.10;99.90;;;;;;4939529;29;20044;-73
2022/04/19 00:06:16;;;;;;;13.63;7.03;;;10.10;99.90;;;;;;4919329;29;20047;-73
2022/04/19 00:08:42;;;;;;;10.75;7.57;;;10.00;99.90;;;;;;4955987;28;20051;-72
2022/04/19 00:11:08;;;;;;;12.57;7.35;;;10.00;99.90;;;;;;4927468;29;20059;-72
2022/04/19 00:13:34;;;;;;;13.70;7.47;;;9.90;99.90;;;;;;4922300;29;20050;-72
2022/04/19 00:16:00;;;;;;;12.88;7.68;;;9.90;99.90;;;;;;4939722;28;20047;-70
2022/04/19 00:18:27;;;;;;;11.90;7.88;;;9.90;99.90;;;;;;4938624;29;20042;-70
2022/04/19 00:20:54;;;;;;;12.38;7.55;;;9.90;99.90;;;;;;4941382;29;20051;-70
2022/04/19 00:23:21;;;;;;;12.68;7.75;;;9.80;99.90;;;;;;4926062;29;20056;-71
2022/04/19 00:25:52;;;;;;;13.60;7.70;;;9.70;99.90;;;;;;4932459;29;20051;-71
2022/04/19 00:28:18;;;;;;;;;;;9.70;99.90;;;;;;4905251;29;20070;-71
2022/04/19 00:30:47;;;;;;;11.75;7.35;;;9.60;99.90;;;;;;4940401;29;19926;-71
2022/04/19 00:33:13;;;;;;;13.80;8.25;;;9.60;99.90;;;;;;4941610;28;20110;-71
2022/04/19 00:35:39;;;;;;;13.70;7.53;;;9.60;99.90;;;;;;4943422;28;20059;-71
2022/04/19 00:38:06;;;;;;;12.73;7.57;;;9.60;99.90;;;;;;4940152;28;20555;-71
2022/04/19 00:40:32;;;;;;;12.57;8.25;;;9.50;99.90;;;;;;4954679;28;20051;-71
2022/04/19 00:42:59;;;;;;;12.93;7.70;;;9.60;99.90;;;;;;4952788;28;20051;-71
2022/04/19 00:45:25;;;;;;;11.43;7.50;;;9.60;99.90;;;;;;4954553;28;20093;-71
2022/04/19 00:47:53;;;;;;;11.00;6.75;;;9.60;99.90;;;;;;4943466;28;20058;-72
2022/04/19 00:50:19;;;;;;;12.27;6.85;;;9.60;99.90;;;;;;4950688;29;20412;-71
2022/04/19 00:52:46;;;;;;;11.07;7.22;;;9.60;99.90;;;;;;4948412;28;20130;-71
2022/04/19 00:55:12;;;;;;;10.45;6.75;;;9.60;99.90;;;;;;4951142;28;20126;-71
2022/04/19 00:57:41;;;;;;;11.90;7.25;;;9.60;99.90;;;;;;4956203;28;20473;-71
2022/04/19 01:00:12;;;;;;;12.07;7.07;;;9.50;99.90;;;;;;4937475;28;20131;-71
2022/04/19 01:02:39;;;;;;;10.30;6.83;;;9.50;99.90;;;;;;4942247;29;20050;-71
2022/04/19 01:05:07;;;;;;;14.00;7.25;;;9.40;99.90;;;;;;4945703;29;20743;-71
2022/04/19 01:07:36;;;;;;;12.27;7.28;;;9.30;99.90;;;;;;4936901;28;20043;-71
2022/04/19 01:10:03;;;;;;;12.65;7.80;;;9.30;99.90;;;;;;4957382;28;20046;-71
2022/04/19 01:15:16;;;;;;;12.25;6.95;;;9.20;99.90;;;;;;4952433;28;20665;-72
2022/04/19 01:17:42;;;;;;;11.65;7.15;;;9.10;99.90;;;;;;4950290;28;20095;-70
2022/04/19 01:20:10;;;;;;;10.98;6.70;;;9.00;99.90;;;;;;4957345;28;20385;-72
2022/04/19 01:22:37;;;;;;;12.55;7.50;;;8.90;99.90;;;;;;4961446;28;20416;-71
2022/04/19 01:25:04;;;;;;;11.05;7.25;;;8.80;99.90;;;;;;4944298;28;20509;-71
2022/04/19 01:27:31;;;;;;;11.05;7.60;;;8.80;99.90;;;;;;4930451;28;20072;-72
2022/04/19 01:30:01;;;;;;;13.32;7.07;;;8.70;99.90;;;;;;4948400;28;20476;-71
2022/04/19 01:32:30;;;;;;;12.90;7.32;;;8.70;99.90;;;;;;4954695;28;20047;-71
2022/04/19 01:35:09;;;;;;;9.95;6.28;;;8.70;99.90;;;;;;4938565;29;20113;-71
2022/04/19 01:37:37;;;;;;;11.07;6.63;;;8.70;99.90;;;;;;4935219;29;20050;-71
2022/04/19 01:40:19;;;;;;;11.57;6.90;;;8.60;99.90;;;;;;4938611;29;20432;-71
2022/04/19 01:42:58;;;;;;;11.18;6.53;;;8.60;99.90;;;;;;4936235;29;20070;-73
2022/04/19 01:45:29;;;;;;;11.55;6.95;;;8.60;99.90;;;;;;4945374;28;20396;-71
2022/04/19 01:47:57;;;;;;;11.93;6.85;;;8.50;99.90;;;;;;4948599;28;20047;-71
2022/04/19 01:50:28;;;;;;;11.55;7.13;;;8.50;99.90;;;;;;4927178;28;20078;-71
2022/04/19 01:52:56;;;;;;;11.35;6.93;;;8.50;99.90;;;;;;4951584;28;20395;-71
2022/04/19 01:55:22;;;;;;;12.43;6.82;;;8.50;99.90;;;;;;4942217;28;20515;-71
2022/04/19 01:57:53;;;;;;;10.52;6.72;;;8.40;99.90;;;;;;4933076;29;20489;-70
2022/04/19 02:00:19;;;;;;;12.33;7.33;;;8.30;99.90;;;;;;4921215;28;20090;-71
2022/04/19 02:02:46;;;;;;;10.90;6.13;;;8.30;99.90;;;;;;4935426;29;20311;-71
2022/04/19 02:05:13;;;;;;;12.82;7.15;;;8.20;99.90;;;;;;4921925;28;20058;-71
2022/04/19 02:07:41;;;;;;;12.70;7.40;;;8.20;99.90;;;;;;4952604;29;20051;-72
2022/04/19 02:10:09;;;;;;;10.55;7.28;;;8.20;99.90;;;;;;4935270;29;20047;-71
2022/04/19 02:12:36;;;;;;;12.32;7.38;;;8.20;99.90;;;;;;4936821;29;20110;-70
2022/04/19 02:15:03;;;;;;;13.63;7.75;;;8.20;99.90;;;;;;4955530;28;20087;-71
2022/04/19 02:17:29;;;;;;;13.18;7.68;;;8.20;99.90;;;;;;4936991;29;20069;-71
2022/04/19 02:20:04;;;;;;;11.75;7.28;;;8.20;99.90;;;;;;4952203;28;20464;-70
2022/04/19 02:22:30;;;;;;;11.82;7.55;;;8.20;99.90;;;;;;4936195;29;20059;-71
2022/04/19 02:24:58;;;;;;;14.55;7.65;;;8.20;99.90;;;;;;4923833;29;20410;-71
2022/04/19 02:27:25;;;;;;;12.82;8.18;;;8.20;99.90;;;;;;4921490;28;20412;-72
2022/04/19 02:29:52;;;;;;;17.52;8.38;;;8.20;99.90;;;;;;4940621;28;20413;-72
2022/04/19 02:32:18;;;;;;;14.07;8.02;;;8.20;99.90;;;;;;4944410;28;20400;-72
2022/04/19 02:34:44;;;;;;;12.95;8.05;;;8.20;99.90;;;;;;4936625;28;20138;-71
2022/04/19 02:37:10;;;;;;;14.95;7.85;;;8.30;99.90;;;;;;4952871;28;20155;-71
2022/04/19 02:39:38;;;;;;;13.00;7.60;;;8.30;99.90;;;;;;4950101;28;20054;-71
2022/04/19 02:42:06;;;;;;;15.15;7.63;;;8.30;99.90;;;;;;4949634;28;20126;-71
2022/04/19 02:44:32;;;;;;;12.60;7.38;;;8.30;99.90;;;;;;4935735;28;20083;-71
2022/04/19 02:46:59;;;;;;;13.93;7.43;;;8.30;99.90;;;;;;4914337;28;20051;-73
2022/04/19 02:49:25;;;;;;;13.30;7.43;;;8.30;99.90;;;;;;4936970;29;20047;-71
2022/04/19 02:51:51;;;;;;;12.05;7.15;;;8.30;99.90;;;;;;4940808;28;20055;-72
2022/04/19 02:54:17;;;;;;;13.02;7.40;;;8.20;99.90;;;;;;4939113;29;20489;-72
2022/04/19 02:56:43;;;;;;;12.45;7.40;;;8.20;99.90;;;;;;4936467;28;20126;-71
2022/04/19 02:59:09;;;;;;;13.90;8.18;;;8.20;99.90;;;;;;4936593;28;20158;-71
2022/04/19 03:01:35;;;;;;;12.88;7.75;;;8.20;99.90;;;;;;4934780;29;20054;-72
2022/04/19 03:04:01;;;;;;;13.50;7.40;;;8.20;99.90;;;;;;4920352;29;20061;-71
2022/04/19 03:06:27;;;;;;;12.13;7.93;;;8.20;99.90;;;;;;4953983;28;20126;-71
2022/04/19 03:08:53;;;;;;;14.05;7.90;;;8.10;99.90;;;;;;4956710;28;20047;-71
2022/04/19 03:11:19;;;;;;;13.23;7.30;;;8.10;99.90;;;;;;4951813;28;20050;-72
2022/04/19 03:13:46;;;;;;;15.32;7.97;;;8.10;99.90;;;;;;4941127;29;20496;-72
2022/04/19 03:16:13;;;;;;;14.30;7.97;;;8.10;99.90;;;;;;4951575;28;20054;-71
2022/04/19 03:18:41;;;;;;;13.25;7.13;;;8.10;99.90;;;;;;4953591;28;20048;-72
2022/04/19 03:21:11;;;;;;;13.65;7.65;;;8.10;99.90;;;;;;4922568;28;20051;-71
2022/04/19 03:29:08;;;;;;;12.88;7.53;;;7.90;99.90;;;;;;4938785;28;20519;-72
2022/04/19 03:31:34;;;;;;;14.43;8.30;;;7.90;99.90;;;;;;4920889;28;20070;-72
2022/04/19 03:34:05;;;;;;;14.25;7.45;;;7.80;99.90;;;;;;4950999;28;20047;-72
2022/04/19 03:36:31;;;;;;;14.32;7.38;;;7.80;99.90;;;;;;4939510;29;20428;-72
2022/04/19 03:38:58;;;;;;;13.93;8.15;;;7.70;99.90;;;;;;4940912;28;20122;-73
2022/04/19 03:41:24;;;;;;;13.88;8.07;;;7.80;99.90;;;;;;4925375;29;20146;-72
2022/04/19 03:43:54;;;;;;;15.45;8.13;;;7.70;99.90;;;;;;4941963;29;20051;-71
2022/04/19 03:46:20;;;;;;;16.33;8.63;;;7.80;99.90;;;;;;4953572;28;20043;-72
2022/04/19 03:48:46;;;;;;;18.67;8.93;;;7.70;99.90;;;;;;4938532;28;20039;-71
2022/04/19 03:51:12;;;;;;;16.63;8.60;;;7.70;99.90;;;;;;4965721;28;20047;-72
2022/04/19 03:53:38;;;;;;;15.50;7.80;;;7.70;99.90;;;;;;4956751;28;20185;-72
2022/04/19 03:56:04;;;;;;;15.90;8.77;;;7.70;99.90;;;;;;4956410;28;20074;-72
2022/04/19 03:58:33;;;;;;;14.43;8.48;;;7.70;99.90;;;;;;4930321;28;20055;-72
2022/04/19 04:01:00;;;;;;;18.80;9.07;;;7.60;99.90;;;;;;4949674;28;20046;-71
2022/04/19 04:03:27;;;;;;;16.23;8.38;;;7.60;99.90;;;;;;4941858;28;20069;-73
2022/04/19 04:05:56;;;;;;;16.33;8.18;;;7.60;99.90;;;;;;4941072;29;20043;-72
2022/04/19 04:08:22;;;;;;;15.25;8.23;;;7.60;99.90;;;;;;4940000;28;20046;-72
2022/04/19 04:10:48;;;;;;;14.30;8.65;;;7.60;99.90;;;;;;4945508;28;20051;-72
2022/04/19 04:13:14;;;;;;;14.45;8.50;;;7.60;99.90;;;;;;4958372;28;20155;-72
2022/04/19 04:15:40;;;;;;;15.82;8.55;;;7.60;99.90;;;;;;4956047;28;20125;-72
2022/04/19 04:18:06;;;;;;;17.58;8.75;;;7.50;99.90;;;;;;4945707;28;20058;-71
2022/04/19 04:20:32;;;;;;;16.73;8.45;;;7.60;99.90;;;;;;4965553;28;20058;-72
2022/04/19 04:22:58;;;;;;;17.30;8.90;;;7.60;99.90;;;;;;4938829;29;20058;-71
2022/04/19 04:25:24;;;;;;;15.90;8.50;;;7.60;99.90;;;;;;4930474;28;20050;-72
2022/04/19 04:27:50;;;;;;;17.35;8.77;;;7.60;99.90;;;;;;4932389;29;20072;-72
2022/04/19 04:30:16;;;;;;;15.50;8.40;;;7.60;99.90;;;;;;4937980;28;20281;-72
2022/04/19 04:32:42;;;;;;;15.13;8.48;;;7.50;99.90;;;;;;4944229;28;20039;-71
2022/04/19 04:35:09;;;;;;;15.98;8.60;;;7.60;99.90;;;;;;4939891;28;20954;-71
2022/04/19 04:37:35;;;;;;;17.05;9.02;;;7.50;99.90;;;;;;4940617;28;20405;-71
2022/04/19 04:40:03;;;;;;;15.80;8.55;;;7.50;99.90;;;;;;4959244;28;20129;-73
2022/04/19 04:42:29;;;;;;;15.60;8.63;;;7.50;99.90;;;;;;4936203;28;20047;-71
2022/04/19 04:44:55;;;;;;;16.38;8.90;;;7.50;99.90;;;;;;4941783;28;20518;-72
2022/04/19 04:50:08;;;;;;;15.95;8.60;;;7.50;99.90;;;;;;4938548;29;20141;-71
2022/04/19 04:52:34;;;;;;;17.92;9.10;;;7.50;99.90;;;;;;4935188;29;20047;-71
2022/04/19 04:55:00;;;;;;;16.33;8.77;;;7.60;99.90;;;;;;4955052;28;20058;-71
2022/04/19 04:57:26;;;;;;;15.73;8.55;;;7.60;99.90;;;;;;4953853;28;20047;-71
2022/04/19 04:59:52;;;;;;;16.85;8.60;;;7.60;99.90;;;;;;4938424;29;20075;-71
2022/04/19 05:02:18;;;;;;;15.07;8.65;;;7.60;99.90;;;;;;4953980;28;20054;-71
2022/04/19 05:04:44;;;;;;;18.70;8.73;;;7.70;99.90;;;;;;4955017;28;20111;-72
2022/04/19 05:07:15;;;;;;;15.10;8.40;;;7.70;99.90;;;;;;4942601;29;20047;-72
2022/04/19 05:09:41;;;;;;;17.35;8.57;;;7.70;99.90;;;;;;4939684;29;20047;-72
2022/04/19 05:12:09;;;;;;;14.20;8.55;;;7.80;99.90;;;;;;4940906;28;20389;-71
2022/04/19 05:14:35;;;;;;;15.15;8.75;;;7.80;99.90;;;;;;4941187;29;20079;-71
2022/04/19 05:17:02;;;;;;;17.45;8.80;;;7.90;99.90;;;;;;4953925;28;20050;-72
2022/04/19 05:19:28;;;;;;;16.48;8.77;;;7.90;99.90;;;;;;4955519;28;20493;-72
2022/04/19 05:21:54;;;;;;;15.68;8.95;;;7.90;99.90;;;;;;4956771;28;20130;-72
2022/04/19 05:24:20;;;;;;;15.20;8.52;;;8.00;99.90;;;;;;4957743;28;20057;-71
2022/04/19 05:26:46;;;;;;;16.95;8.65;;;8.00;99.90;;;;;;4959270;28;20488;-72
2022/04/19 05:29:12;;;;;;;16.65;8.35;;;8.10;99.90;;;;;;4953244;28;20043;-71
2022/04/19 05:31:39;;;;;;;15.88;9.25;;;8.10;99.90;;;;;;4960917;28;20093;-71
2022/04/19 05:34:05;;;;;;;16.90;8.55;;;8.20;99.90;;;;;;4945327;28;20532;-71
2022/04/19 05:36:31;;;;;;;16.55;8.63;;;8.20;99.90;;;;;;4904447;29;20043;-73
2022/04/19 05:38:57;;;;;;;14.25;8.15;;;8.30;99.90;;;;;;4934223;29;20122;-72
2022/04/19 05:41:24;;;;;;;13.63;8.25;;;8.30;99.90;;;;;;4920994;29;20043;-72
2022/04/19 05:43:50;;;;;;;15.43;8.02;;;8.40;99.90;;;;;;4933554;29;20050;-72
2022/04/19 05:46:17;;;;;;;17.10;8.55;;;8.40;99.90;;;;;;4920901;29;20390;-73
2022/04/19 05:48:44;;;;;;;14.40;8.10;;;8.50;99.90;;;;;;4935755;29;20047;-71
2022/04/19 05:51:11;;;;;;;14.95;8.35;;;8.60;99.90;;;;;;4925163;29;20083;-72
2022/04/19 05:53:38;;;;;;;15.65;8.43;;;8.60;99.90;;;;;;4920548;29;20116;-71
2022/04/19 05:56:04;;;;;;;14.45;8.55;;;8.70;99.90;;;;;;4935533;29;20102;-72
2022/04/19 05:58:31;;;;;;;15.13;8.32;;;8.70;99.90;;;;;;4917723;29;20048;-72
2022/04/19 06:00:57;;;;;;;14.98;8.50;;;8.80;99.90;;;;;;4934647;29;20047;-72
2022/04/19 06:06:07;;;;;;;14.65;7.75;;;9.00;99.90;;;;;;4923445;29;20066;-72
2022/04/19 06:08:33;;;;;;;17.02;7.90;;;9.20;99.90;;;;;;4902280;29;20401;-71
2022/04/19 06:10:59;;;;;;;13.25;7.75;;;9.30;99.90;;;;;;4933837;29;20052;-71
2022/04/19 06:13:26;;;;;;;12.68;7.88;;;9.40;99.90;;;;;;4922304;29;20517;-71
2022/04/19 06:15:52;;;;;;;14.35;7.80;;;9.50;99.90;;;;;;4919028;29;20047;-71
2022/04/19 06:18:18;;;;;;;13.48;7.75;;;9.70;99.90;;;;;;4936687;29;20400;-72
2022/04/19 06:20:44;;;;;;;13.85;8.13;;;9.80;99.90;;;;;;4920986;29;20059;-72
2022/04/19 06:23:11;;;;;;;13.80;7.90;;;9.90;99.90;;;;;;4934163;29;20141;-72
2022/04/19 06:25:37;;;;;;;12.35;7.57;;;10.00;99.90;;;;;;4942178;29;20051;-72
2022/04/19 06:28:03;;;;;;;13.30;7.55;;;10.20;99.90;;;;;;4914820;29;20098;-72
2022/04/19 06:30:29;;;;;;;15.02;7.35;;;10.20;99.90;;;;;;4914274;29;20056;-72
2022/04/19 06:32:55;;;;;;;13.43;7.35;;;10.30;99.90;;;;;;4938990;28;20055;-71
2022/04/19 06:35:21;;;;;;;14.00;7.32;;;10.40;99.90;;;;;;4945713;28;20100;-71
2022/04/19 06:37:47;;;;;;;14.25;7.40;;;10.50;99.90;;;;;;4958629;28;20055;-73
2022/04/19 06:40:13;;;;;;;11.95;7.25;;;10.60;99.90;;;;;;4953660;28;20129;-74
2022/04/19 06:42:39;;;;;;;12.52;7.20;;;10.60;99.90;;;;;;4935847;28;20055;-73
2022/04/19 06:45:06;;;;;;;12.43;7.18;;;10.70;99.90;;;;;;4941087;28;20487;-74
2022/04/19 06:47:34;;;;;;;11.43;7.28;;;10.80;99.90;;;;;;4957086;28;20079;-73
2022/04/19 06:50:00;;;;;;;11.80;6.70;;;10.90;99.90;;;;;;4952859;28;20532;-73
2022/04/19 06:52:26;;;;;;;11.40;7.00;;;11.00;99.90;;;;;;4942113;29;20127;-74
2022/04/19 06:54:52;;;;;;;10.80;6.70;;;11.10;99.90;;;;;;4956655;28;20043;-73
2022/04/19 06:57:18;;;;;;;10.77;6.20;;;11.20;99.90;;;;;;4953351;28;20055;-74
2022/04/19 06:59:45;;;;;;;14.80;6.20;;;11.30;99.90;;;;;;4947476;29;20087;-74
2022/04/19 07:02:11;;;;;;;8.95;5.78;;;11.40;99.90;;;;;;4933221;28;20542;-73
2022/04/19 07:04:37;;;;;;;10.13;5.93;;;11.50;99.90;;;;;;4918617;28;20052;-75
2022/04/19 07:07:03;;;;;;;9.85;5.80;;;11.60;99.90;;;;;;4953724;28;20446;-74
2022/04/19 07:09:29;;;;;;;9.35;5.68;;;11.60;99.90;;;;;;4934379;29;20105;-73
2022/04/19 07:11:56;;;;;;;9.60;5.80;;;11.60;99.90;;;;;;4934710;29;20098;-74
2022/04/19 07:14:22;;;;;;;10.98;6.00;;;11.70;99.90;;;;;;4936087;28;20510;-73
2022/04/19 07:16:48;;;;;;;11.15;5.80;;;11.80;99.90;;;;;;4920474;28;20043;-73
2022/04/19 07:19:15;;;;;;;10.20;6.18;;;11.90;99.90;;;;;;4924211;28;20133;-73
2022/04/19 07:27:10;;;;;;;8.32;5.00;;;12.10;99.90;;;;;;4940065;28;20413;-72
2022/04/19 07:29:36;;;;;;;8.40;5.32;;;12.20;99.90;;;;;;4945547;29;20091;-74
2022/04/19 07:32:02;;;;;;;7.65;5.03;;;12.30;99.90;;;;;;4938647;29;20099;-74
2022/04/19 07:34:28;;;;;;;11.48;5.57;;;12.40;99.90;;;;;;4939306;29;20098;-73
2022/04/19 07:36:56;;;;;;;7.32;4.95;;;12.50;99.90;;;;;;4955321;28;20051;-73
2022/04/19 07:39:22;;;;;;;9.02;4.93;;;12.60;99.90;;;;;;4964029;28;20428;-72
2022/04/19 07:41:48;;;;;;;7.85;4.55;;;12.70;99.90;;;;;;4938546;29;20047;-73
2022/04/19 07:44:15;;;;;;;7.18;4.40;;;12.80;99.90;;;;;;4952366;28;20051;-74
2022/04/19 07:46:44;;;;;;;7.30;4.13;;;12.90;99.90;;;;;;4939909;29;20059;-73
2022/04/19 07:49:11;;;;;;;6.05;3.88;;;13.00;99.90;;;;;;4937318;28;20400;-73
2022/04/19 07:51:37;;;;;;;6.82;4.35;;;13.10;99.90;;;;;;4945478;28;20050;-73
2022/04/19 07:54:03;;;;;;;4.88;3.78;;;13.10;99.90;;;;;;4960590;28;20492;-73
2022/04/19 07:56:29;;;;;;;6.75;4.15;;;13.10;99.90;;;;;;4939117;29;20051;-73
2022/04/19 07:58:55;;;;;;;6.05;3.80;;;13.20;99.90;;;;;;4950256;28;20042;-73
2022/04/19 08:01:21;;;;;;;6.63;3.88;;;13.30;99.90;;;;;;4920403;29;20851;-72
2022/04/19 08:03:47;;;;;;;6.40;3.78;;;13.40;99.90;;;;;;4944153;28;20051;-74
2022/04/19 08:06:13;;;;;;;6.20;3.60;;;13.50;99.90;;;;;;4954638;28;20620;-73
2022/04/19 08:08:42;;;;;;;4.60;3.50;;;13.60;99.00;;;;;;4938858;29;20126;-73
2022/04/19 08:11:08;;;;;;;4.47;3.30;;;13.80;95.20;;;;;;4948751;28;20061;-73
2022/04/19 08:13:34;;;;;;;4.10;2.55;;;13.90;90.60;;;;;;4960861;28;20047;-73
2022/04/19 08:16:00;;;;;;;8.55;3.67;;;13.90;85.10;;;;;;4961009;28;20055;-74
2022/04/19 08:18:27;;;;;;;5.05;3.20;;;14.00;80.50;;;;;;4937047;28;20050;-74
2022/04/19 08:20:53;;;;;;;4.85;3.53;;;14.10;83.10;;;;;;4952603;28;20568;-73
2022/04/19 08:23:19;;;;;;;3.60;3.08;;;14.10;81.00;;;;;;4937355;29;20063;-73
2022/04/19 08:25:45;;;;;;;5.75;3.53;;;14.20;79.80;;;;;;4938908;29;20126;-74
2022/04/19 08:28:11;;;;;;;4.90;3.15;;;14.30;79.20;;;;;;4937956;28;20050;-73
2022/04/19 08:30:37;;;;;;;4.82;2.90;;;14.40;78.20;;;;;;4954630;28;20057;-74
2022/04/19 08:33:03;;;;;;;4.50;2.95;;;14.40;76.20;;;;;;4937199;29;20051;-73
2022/04/19 08:35:29;;;;;;;3.42;2.47;;;14.40;76.80;;;;;;4940028;29;20050;-73
2022/04/19 08:37:56;;;;;;;5.90;3.15;;;14.50;74.50;;;;;;4954483;29;20499;-73
2022/04/19 08:40:22;;;;;;;4.72;2.90;;;14.60;74.50;;;;;;4922288;28;20059;-70
2022/04/19 08:42:48;;;;;;;5.15;2.72;;;14.60;73.10;;;;;;4953960;29;20058;-75
2022/04/19 08:45:16;;;;;;;4.95;2.88;;;14.60;72.70;;;;;;4924255;28;20043;-75
2022/04/19 08:47:44;;;;;;;3.17;2.60;;;14.60;72.70;;;;;;4941495;28;20046;-78
2022/04/19 08:50:12;;;;;;;5.07;2.92;;;14.70;73.80;;;;;;4940008;28;20043;-78
2022/04/19 08:52:40;;;;;;;3.67;3.05;;;14.90;74.30;;;;;;4951905;28;20059;-75
2022/04/19 08:57:52;;;;;;;4.75;2.90;;;15.10;71.40;;;;;;4938349;28;20181;-76
2022/04/19 09:00:23;;;;;;;4.05;2.78;;;15.10;70.80;;;;;;4923530;29;20129;-74
2022/04/19 09:02:58;;;;;;;8.37;2.80;;;15.10;71.00;;;;;;4937705;28;20190;-78
2022/04/19 09:05:29;;;;;;;4.65;2.55;;;15.30;71.00;;;;;;4948519;28;20290;-72
2022/04/19 09:07:57;;;;;;;3.53;2.60;;;15.30;69.80;;;;;;4921997;29;20389;-73
2022/04/19 09:10:34;;;;;;;4.10;2.40;;;15.30;68.80;;;;;;4937404;29;20310;-71
2022/04/19 09:13:01;;;;;;;5.57;2.80;;;15.50;68.80;;;;;;4937729;28;20054;-70
2022/04/19 09:15:34;;;;;;;4.65;2.90;;;15.50;67.90;;;;;;4953608;29;20114;-72
2022/04/19 09:18:01;;;;;;;4.88;2.88;;;15.70;67.90;;;;;;4937819;29;20085;-71
2022/04/19 09:20:27;;;;;;;5.20;2.80;;;15.70;68.50;;;;;;4938160;29;20382;-71
2022/04/19 09:23:05;;;;;;;3.65;2.58;;;16.00;69.10;;;;;;4923468;28;20059;-71
2022/04/19 09:25:32;;;;;;;3.85;2.97;;;16.10;67.60;;;;;;4937963;29;20169;-72
2022/04/19 09:27:59;;;;;;;4.72;3.15;;;16.00;66.60;;;;;;4937436;29;20501;-72
2022/04/19 09:30:31;;;;;;;3.40;2.80;;;16.10;66.90;;;;;;4953895;29;20496;-71
2022/04/19 09:33:04;;;;;;;4.60;2.88;;;15.90;66.30;;;;;;4936415;28;20151;-71
2022/04/19 09:35:47;;;;;;;5.28;2.75;;;15.90;66.00;;;;;;4944505;29;20051;-71
2022/04/19 09:38:14;;;;;;;4.75;2.78;;;15.90;65.00;;;;;;4937245;29;20109;-71
2022/04/19 09:40:49;;;;;;;4.15;3.20;;;15.80;66.90;;;;;;4937694;29;20050;-71
2022/04/19 09:43:20;;;;;;;4.53;3.08;;;15.70;66.70;;;;;;4954381;28;20051;-71
2022/04/19 09:45:51;;;;;;;3.40;2.80;;;15.60;67.10;;;;;;4941750;28;20102;-72
2022/04/19 09:48:19;;;;;;;6.68;2.85;;;15.70;68.30;;;;;;4937573;29;20062;-72
2022/04/19 09:50:51;;;;;;;3.97;2.90;;;15.80;66.70;;;;;;4937358;29;20043;-72
2022/04/19 09:53:19;;;;;;;3.95;2.95;;;15.90;65.00;;;;;;4936465;29;20047;-71
2022/04/19 09:55:51;;;;;;;6.60;3.05;;;16.00;65.10;;;;;;4937337;29;20047;-71
2022/04/19 09:58:18;;;;;;;4.18;2.70;;;16.00;66.10;;;;;;4953033;29;20055;-72
2022/04/19 10:00:47;;;;;;;5.40;2.80;;;16.00;65.80;;;;;;4938260;29;20493;-71
2022/04/19 10:08:51;;;;;;;4.65;2.70;;;16.50;64.70;;;;;;4953952;29;20055;-72
2022/04/19 10:11:18;;;;;;;5.63;2.67;;;16.80;64.90;;;;;;4938057;29;20047;-71
2022/04/19 10:13:45;;;;;;;5.80;2.88;;;16.90;63.80;;;;;;4936480;29;20062;-71
2022/04/19 10:16:14;;;;;;;6.22;2.75;;;17.00;63.30;;;;;;4937107;29;20524;-71
2022/04/19 10:18:44;;;;;;;4.97;3.08;;;17.20;62.40;;;;;;4936801;28;20047;-71
2022/04/19 10:21:17;;;;;;;5.22;2.80;;;17.10;62.00;;;;;;4941038;29;20043;-72
2022/04/19 10:23:44;;;;;;;4.07;3.30;;;17.10;61.80;;;;;;4942971;29;20102;-71
2022/04/19 10:26:21;;;;;;;6.55;3.05;;;17.40;62.50;;;;;;4943097;29;20051;-71
2022/04/19 10:28:50;;;;;;;6.18;2.88;;;17.40;61.40;;;;;;4952650;29;20062;-71
2022/04/19 10:31:37;;;;;;;6.88;3.10;;;17.50;62.60;;;;;;4922152;29;20189;-72
2022/04/19 10:34:05;;;;;;;3.83;2.83;;;17.70;64.00;;;;;;4952280;29;20070;-72
2022/04/19 10:36:38;;;;;;;4.45;3.10;;;17.70;63.30;;;;;;4922676;28;20051;-73
2022/04/19 10:39:16;;;;;;;6.10;2.60;;;17.90;62.60;;;;;;4936220;29;20102;-72
2022/04/19 10:41:48;;;;;;;3.00;2.60;;;18.10;62.60;;;;;;4952482;28;20051;-71
2022/04/19 10:44:31;;;;;;;3.90;2.92;;;18.20;61.10;;;;;;4952494;28;20051;-71
2022/04/19 10:47:11;;;;;;;4.47;2.50;;;18.10;59.90;;;;;;4953638;28;20055;-71
2022/04/19 10:49:50;;;;;;;3.70;2.70;;;18.10;59.20;;;;;;4921014;29;20380;-71
2022/04/19 10:52:42;;;;;;;3.97;2.42;;;18.20;59.00;;;;;;4952256;28;20059;-71
2022/04/19 10:55:18;;;;;;;4.00;2.53;;;18.30;57.60;;;;;;4953724;28;20059;-72
2022/04/19 11:00:34;;;;;;;6.15;2.53;;;18.40;58.60;;;;;;4940519;29;20492;-72
2022/04/19 11:03:20;;;;;;;4.45;2.42;;;18.50;59.00;;;;;;4940138;29;20375;-71
2022/04/19 11:05:52;;;;;;;4.55;2.60;;;18.40;58.00;;;;;;4938370;28;20054;-70
2022/04/19 11:08:29;;;;;;;3.10;2.50;;;18.40;58.10;;;;;;4945560;28;20429;-72
2022/04/19 11:10:55;;;;;;;3.80;2.55;;;18.50;57.20;;;;;;4964793;28;20079;-71
2022/04/19 11:13:26;;;;;;;4.35;2.80;;;18.40;56.90;;;;;;4955261;28;20083;-72
2022/04/19 11:16:04;;;;;;;5.05;2.80;;;18.40;56.60;;;;;;4929069;28;20043;-71
2022/04/19 11:18:53;;;;;;;6.47;3.20;;;18.60;57.10;;;;;;4967190;28;20058;-71
2022/04/19 11:21:59;;;;;;;4.35;2.97;;;18.40;57.40;;;;;;4940273;29;20493;-71
2022/04/19 11:24:58;;;;;;;4.60;3.22;;;18.40;56.00;;;;;;4955139;28;20051;-71
2022/04/19 11:27:45;;;;;;;4.43;2.90;;;18.60;56.80;;;;;;4938664;29;20051;-77
2022/04/19 11:30:17;;;;;;;5.07;3.40;;;18.70;57.70;;;;;;4935996;29;20059;-76
2022/04/19 11:32:52;;;;;;;4.28;3.30;;;18.70;56.80;;;;;;4923863;29;20047;-77
2022/04/19 11:35:19;;;;;;;5.35;3.15;;;18.70;56.90;;;;;;4940550;29;20448;-76
2022/04/19 11:37:46;;;;;;;6.32;3.50;;;18.90;57.70;;;;;;4956578;29;20471;-76
2022/04/19 11:49:04;;;;;;;3.70;2.78;;;19.20;57.30;;;;;;4955799;28;20082;-77
2022/04/19 11:51:35;;;;;;;4.28;2.80;;;19.10;57.80;;;;;;4956681;29;20058;-77
2022/04/19 11:54:01;;;;;;;4.45;2.47;;;19.20;57.50;;;;;;4958350;28;20047;-75
2022/04/19 11:56:27;;;;;;;4.20;2.92;;;19.30;56.70;;;;;;4955308;29;20456;-76
2022/04/19 11:58:57;;;;;;;6.03;2.30;;;19.30;55.80;;;;;;4939001;28;20055;-75
2022/04/19 12:01:23;;;;;;;4.20;2.28;;;19.40;56.60;;;;;;4955421;28;20043;-77
2022/04/19 12:03:49;;;;;;;3.42;2.78;;;19.60;56.90;;;;;;4955275;28;20102;-75
2022/04/19 12:06:18;;;;;;;2.72;2.42;;;19.50;55.90;;;;;;4962179;28;20122;-76
2022/04/19 12:08:46;;;;;;;3.72;2.72;;;19.50;56.70;;;;;;4965166;28;20043;-75
2022/04/19 12:11:19;;;;;;;2.83;2.45;;;19.60;56.10;;;;;;4939084;29;20408;-75
2022/04/19 12:13:47;;;;;;;4.65;2.42;;;19.80;54.80;;;;;;4954609;28;20058;-75
2022/04/19 12:16:34;;;;;;;2.95;2.33;;;20.00;55.40;;;;;;4939103;29;20051;-76
2022/04/19 12:19:07;;;;;;;5.25;2.75;;;20.20;54.20;;;;;;4951030;28;20055;-77
2022/04/19 12:21:42;;;;;;;3.33;2.60;;;20.10;53.10;;;;;;4952106;28;20055;-76
2022/04/19 12:24:17;;;;;;;3.95;2.70;;;20.30;53.50;;;;;;4923485;29;20513;-75
2022/04/19 12:26:43;;;;;;;3.40;2.53;;;20.70;53.40;;;;;;4953247;28;20516;-75
2022/04/19 12:29:14;;;;;;;4.55;3.00;;;21.10;55.10;;;;;;4937720;28;20047;-73
2022/04/19 12:31:44;;;;;;;3.45;2.83;;;21.30;54.40;;;;;;4947731;29;20055;-74
2022/04/19 12:34:12;;;;;;;3.60;2.60;;;21.50;55.70;;;;;;4945588;29;20146;-74
2022/04/19 12:36:49;;;;;;;3.78;2.95;;;21.70;55.20;;;;;;4940706;28;20488;-74
2022/04/19 12:39:20;;;;;;;3.92;3.00;;;21.90;52.10;;;;;;4961972;28;20055;-76
2022/04/19 12:41:47;;;;;;;3.53;2.88;;;22.00;52.40;;;;;;4970146;28;20055;-74
2022/04/19 12:44:17;;;;;;;4.25;2.90;;;22.00;52.00;;;;;;4938685;28;20051;-74
2022/04/19 12:46:54;;;;;;;4.82;3.40;;;21.90;53.00;;;;;;4947394;29;20062;-74
2022/04/19 12:49:31;;;;;;;3.20;2.78;;;22.00;50.10;;;;;;4939078;29;20187;-76
2022/04/19 12:52:04;;;;;;;4.38;3.30;;;22.00;48.20;;;;;;4952586;28;20043;-73
2022/04/19 12:54:33;;;;;;;4.65;3.20;;;21.90;49.80;;;;;;4951945;29;20408;-74
2022/04/19 12:57:00;;;;;;;5.63;3.03;;;22.40;50.60;;;;;;4933446;29;20106;-74
2022/04/19 12:59:32;;;;;;;3.92;3.17;;;22.80;50.80;;;;;;4945198;29;20146;-73
2022/04/19 13:01:59;;;;;;;5.18;3.55;;;22.90;48.40;;;;;;4937533;29;20047;-76
2022/04/19 13:04:26;;;;;;;4.00;3.20;;;23.10;50.20;;;;;;4938588;29;20102;-75
2022/04/19 13:12:24;;;;;;;5.18;3.42;;;23.80;48.60;;;;;;4937649;29;20055;-75
2022/04/19 13:14:53;;;;;;;3.67;3.20;;;23.80;47.70;;;;;;4936438;29;20110;-77
2022/04/19 13:17:20;;;;;;;3.28;2.97;;;24.00;46.40;;;;;;4919840;29;20639;-82
2022/04/19 13:19:46;;;;;;;4.22;3.40;;;24.20;46.90;;;;;;4953494;28;20051;-76
2022/04/19 13:22:13;;;;;;;4.47;2.65;;;24.60;46.20;;;;;;4957697;28;20522;-77
2022/04/19 13:24:40;;;;;;;4.90;2.70;;;24.70;44.80;;;;;;4952895;28;20498;-75
2022/04/19 13:27:07;;;;;;;6.00;3.42;;;24.90;44.70;;;;;;4954856;29;20061;-76
2022/04/19 13:29:34;;;;;;;4.78;3.40;;;24.90;44.30;;;;;;4953172;28;20043;-76
2022/04/19 13:32:01;;;;;;;6.22;3.17;;;25.40;43.60;;;;;;4953685;29;20043;-79
2022/04/19 13:34:27;;;;;;;4.25;3.20;;;25.40;43.80;;;;;;4936185;29;20408;-78
2022/04/19 13:36:56;;;;;;;4.18;3.30;;;25.60;44.50;;;;;;4953344;29;20066;-78